createdAt,value
2018-09-02T00:00:16.853Z,9.60
2018-09-02T00:00:49.980Z,9.28
2018-09-02T00:01:23.197Z,12.00
2018-09-02T00:01:56.312Z,15.23
2018-09-02T00:02:29.447Z,16.97
2018-09-02T00:03:04.050Z,13.00
2018-09-02T00:03:37.342Z,12.80
2018-09-02T00:04:10.542Z,28.10
2018-09-02T00:04:43.698Z,15.60
2018-09-02T00:05:16.877Z,13.35
2018-09-02T00:05:50.023Z,11.95
2018-09-02T00:06:23.350Z,13.72
2018-09-02T00:06:56.511Z,15.32
2018-09-02T00:07:29.695Z,7.90
2018-09-02T00:08:03.049Z,9.20
2018-09-02T00:08:36.229Z,12.78
2018-09-02T00:09:09.438Z,11.90
2018-09-02T00:09:42.604Z,8.15
2018-09-02T00:10:15.770Z,9.05
2018-09-02T00:10:48.965Z,10.50
2018-09-02T00:11:22.278Z,9.98
2018-09-02T00:11:55.498Z,7.62
2018-09-02T00:12:28.711Z,7.62
2018-09-02T00:13:01.890Z,10.72
2018-09-02T00:13:35.000Z,8.75
2018-09-02T00:14:08.169Z,8.10
2018-09-02T00:14:41.342Z,10.32
2018-09-02T00:15:14.488Z,9.53
2018-09-02T00:15:47.630Z,9.53
2018-09-02T00:16:20.918Z,6.90
2018-09-02T00:16:54.141Z,12.40
2018-09-02T00:17:27.336Z,10.93
2018-09-02T00:18:00.481Z,10.32
2018-09-02T00:18:33.654Z,9.93
2018-09-02T00:19:06.911Z,13.13
2018-09-02T00:19:40.092Z,6.78
2018-09-02T00:20:13.337Z,11.78
2018-09-02T00:20:46.501Z,9.18
2018-09-02T00:21:19.667Z,9.18
2018-09-02T00:21:52.971Z,8.48
2018-09-02T00:22:26.109Z,8.43
2018-09-02T00:22:59.243Z,6.05
2018-09-02T00:23:32.434Z,8.70
2018-09-02T00:24:05.709Z,7.97
2018-09-02T00:24:38.833Z,8.93
2018-09-02T00:25:12.033Z,6.83
2018-09-02T00:25:45.189Z,7.90
2018-09-02T00:26:18.340Z,6.58
2018-09-02T00:26:51.488Z,8.03
2018-09-02T00:27:24.642Z,6.50
2018-09-02T00:27:57.809Z,10.70
2018-09-02T00:28:30.948Z,7.65
2018-09-02T00:29:04.143Z,7.47
2018-09-02T00:29:37.287Z,5.87
2018-09-02T00:30:10.449Z,7.28
2018-09-02T00:30:43.643Z,5.90
2018-09-02T00:31:16.838Z,6.80
2018-09-02T00:31:50.018Z,6.12
2018-09-02T00:32:23.194Z,6.95
2018-09-02T00:32:56.365Z,5.00
2018-09-02T00:33:29.538Z,8.55
2018-09-02T00:34:02.732Z,6.75
2018-09-02T00:34:35.893Z,7.28
2018-09-02T00:35:09.050Z,4.92
2018-09-02T00:35:42.234Z,4.78
2018-09-02T00:36:15.394Z,8.90
2018-09-02T00:36:48.541Z,6.03
2018-09-02T00:37:21.722Z,4.97
2018-09-02T00:37:54.863Z,5.00
2018-09-02T00:38:28.034Z,6.78
2018-09-02T00:39:01.190Z,5.12
2018-09-02T00:39:34.315Z,6.60
2018-09-02T00:40:07.470Z,5.25
2018-09-02T00:40:40.611Z,4.30
2018-09-02T00:41:13.747Z,10.53
2018-09-02T00:41:46.910Z,6.10
2018-09-02T00:42:20.107Z,5.65
2018-09-02T00:42:53.246Z,5.25
2018-09-02T00:43:26.405Z,6.47
2018-09-02T00:43:59.578Z,4.42
2018-09-02T00:44:32.739Z,4.83
2018-09-02T00:45:06.470Z,4.80
2018-09-02T00:45:39.621Z,6.58
2018-09-02T00:46:13.759Z,4.70
2018-09-02T00:46:46.889Z,4.25
2018-09-02T00:47:20.101Z,4.97
2018-09-02T00:47:53.260Z,5.95
2018-09-02T00:48:26.437Z,5.35
2018-09-02T00:48:59.653Z,4.80
2018-09-02T00:49:32.779Z,4.75
2018-09-02T00:50:07.238Z,4.25
2018-09-02T00:50:40.381Z,6.33
2018-09-02T00:51:13.563Z,5.62
2018-09-02T00:51:46.755Z,5.47
2018-09-02T00:52:19.971Z,4.72
2018-09-02T00:52:53.150Z,4.40
2018-09-02T00:53:26.302Z,4.40
2018-09-02T00:53:59.486Z,4.80
2018-09-02T00:54:32.641Z,5.58
2018-09-02T00:55:05.803Z,5.20
2018-09-02T00:55:39.022Z,4.90
2018-09-02T00:56:12.299Z,4.92
2018-09-02T00:56:45.753Z,4.87
2018-09-02T00:57:18.923Z,4.95
2018-09-02T00:57:52.100Z,5.03
2018-09-02T00:58:25.248Z,3.75
2018-09-02T00:58:58.425Z,4.00
2018-09-02T00:59:31.586Z,6.17
2018-09-02T01:00:05.060Z,5.05
2018-09-02T01:00:38.226Z,6.40
2018-09-02T01:01:11.337Z,5.08
2018-09-02T01:01:44.485Z,3.90
2018-09-02T01:02:17.610Z,5.03
2018-09-02T01:02:50.759Z,6.30
2018-09-02T01:03:23.990Z,6.25
2018-09-02T01:03:57.153Z,5.62
2018-09-02T01:04:30.302Z,5.00
2018-09-02T01:05:03.474Z,7.03
2018-09-02T01:05:36.625Z,4.97
2018-09-02T01:06:09.770Z,5.33
2018-09-02T01:06:42.877Z,5.15
2018-09-02T01:07:16.004Z,5.03
2018-09-02T01:07:49.149Z,4.87
2018-09-02T01:08:22.378Z,4.60
2018-09-02T01:08:55.558Z,3.52
2018-09-02T01:09:28.733Z,4.47
2018-09-02T01:10:01.861Z,5.03
2018-09-02T01:10:34.997Z,4.22
2018-09-02T01:11:08.114Z,4.37
2018-09-02T01:11:41.266Z,4.12
2018-09-02T01:12:14.416Z,4.30
2018-09-02T01:12:47.598Z,5.75
2018-09-02T01:13:20.841Z,5.75
2018-09-02T01:13:54.025Z,5.05
2018-09-02T01:14:27.179Z,4.20
2018-09-02T01:15:00.412Z,7.15
2018-09-02T01:15:33.562Z,4.75
2018-09-02T01:16:06.714Z,7.65
2018-09-02T01:16:39.866Z,6.90
2018-09-02T01:17:13.237Z,4.78
2018-09-02T01:17:46.400Z,4.17
2018-09-02T01:18:19.551Z,4.85
2018-09-02T01:18:52.689Z,4.78
2018-09-02T01:19:25.949Z,4.83
2018-09-02T01:19:59.164Z,5.15
2018-09-02T01:20:32.303Z,4.62
2018-09-02T01:21:05.473Z,4.40
2018-09-02T01:21:38.702Z,6.75
2018-09-02T01:22:12.017Z,4.42
2018-09-02T01:22:45.134Z,4.90
2018-09-02T01:23:18.297Z,5.75
2018-09-02T01:23:51.456Z,4.55
2018-09-02T01:24:24.591Z,4.10
2018-09-02T01:24:57.772Z,6.33
2018-09-02T01:25:30.954Z,4.40
2018-09-02T01:26:04.159Z,4.85
2018-09-02T01:26:37.389Z,4.87
2018-09-02T01:27:10.562Z,5.60
2018-09-02T01:27:43.700Z,4.92
2018-09-02T01:28:16.818Z,4.20
2018-09-02T01:28:49.984Z,6.00
2018-09-02T01:29:23.150Z,4.35
2018-09-02T01:29:56.309Z,5.30
2018-09-02T01:30:29.448Z,3.62
2018-09-02T01:31:02.625Z,4.87
2018-09-02T01:31:35.785Z,4.10
2018-09-02T01:32:08.925Z,5.25
2018-09-02T01:32:42.081Z,4.20
2018-09-02T01:33:15.234Z,4.33
2018-09-02T01:33:48.419Z,7.10
2018-09-02T01:34:21.568Z,5.28
2018-09-02T01:34:54.745Z,4.80
2018-09-02T01:35:34.778Z,5.83
2018-09-02T01:36:07.980Z,4.50
2018-09-02T01:36:40.928Z,4.20
2018-09-02T01:37:13.886Z,5.53
2018-09-02T01:37:46.819Z,6.37
2018-09-02T01:38:19.783Z,4.70
2018-09-02T01:38:52.701Z,5.37
2018-09-02T01:39:25.703Z,5.75
2018-09-02T01:39:58.816Z,5.00
2018-09-02T01:40:32.264Z,5.85
2018-09-02T01:41:05.563Z,4.58
2018-09-02T01:41:38.518Z,5.05
2018-09-02T01:42:11.467Z,4.95
2018-09-02T01:42:44.393Z,5.22
2018-09-02T01:43:17.337Z,4.67
2018-09-02T01:43:50.265Z,6.20
2018-09-02T01:44:23.240Z,5.90
2018-09-02T01:44:56.162Z,5.45
2018-09-02T01:45:29.110Z,5.00
2018-09-02T01:46:02.073Z,4.42
2018-09-02T01:46:35.005Z,4.97
2018-09-02T01:47:07.958Z,4.90
2018-09-02T01:47:40.912Z,4.75
2018-09-02T01:48:13.857Z,4.92
2018-09-02T01:48:46.795Z,5.45
2018-09-02T01:49:19.741Z,6.62
2018-09-02T01:49:52.682Z,5.40
2018-09-02T01:50:25.601Z,5.83
2018-09-02T01:50:58.546Z,5.20
2018-09-02T01:51:31.512Z,5.33
2018-09-02T01:52:04.442Z,5.67
2018-09-02T01:52:37.367Z,6.45
2018-09-02T01:53:10.318Z,5.35
2018-09-02T01:53:43.250Z,5.78
2018-09-02T01:54:16.196Z,6.25
2018-09-02T01:54:49.169Z,4.70
2018-09-02T01:55:22.182Z,4.25
2018-09-02T01:55:55.116Z,4.85
2018-09-02T01:56:28.031Z,4.20
2018-09-02T01:57:00.959Z,5.67
2018-09-02T01:57:33.904Z,5.20
2018-09-02T01:58:06.806Z,6.25
2018-09-02T01:58:39.839Z,7.42
2018-09-02T01:59:12.894Z,5.12
2018-09-02T01:59:45.838Z,6.70
2018-09-02T02:00:18.770Z,5.35
2018-09-02T02:00:51.681Z,5.35
2018-09-02T02:01:24.620Z,4.53
2018-09-02T02:01:58.768Z,4.70
2018-09-02T02:02:31.743Z,4.90
2018-09-02T02:03:04.670Z,5.28
2018-09-02T02:03:37.667Z,4.90
2018-09-02T02:04:10.636Z,7.05
2018-09-02T02:04:43.607Z,5.47
2018-09-02T02:05:16.567Z,6.62
2018-09-02T02:05:49.514Z,4.62
2018-09-02T02:06:22.445Z,6.55
2018-09-02T02:06:55.398Z,4.80
2018-09-02T02:07:28.431Z,6.10
2018-09-02T02:08:01.345Z,5.47
2018-09-02T02:08:34.568Z,5.30
2018-09-02T02:09:08.185Z,5.72
2018-09-02T02:09:41.525Z,5.67
2018-09-02T02:10:14.468Z,4.97
2018-09-02T02:10:47.386Z,5.75
2018-09-02T02:11:20.311Z,5.37
2018-09-02T02:11:53.264Z,6.53
2018-09-02T02:12:26.205Z,5.12
2018-09-02T02:12:59.225Z,5.85
2018-09-02T02:13:32.176Z,6.62
2018-09-02T02:14:05.133Z,6.30
2018-09-02T02:14:38.097Z,5.87
2018-09-02T02:15:11.018Z,6.62
2018-09-02T02:15:43.935Z,6.45
2018-09-02T02:16:16.840Z,6.75
2018-09-02T02:16:49.847Z,5.95
2018-09-02T02:17:22.758Z,5.17
2018-09-02T02:17:55.754Z,5.35
2018-09-02T02:18:28.714Z,6.65
2018-09-02T02:19:01.629Z,5.95
2018-09-02T02:19:35.191Z,6.85
2018-09-02T02:20:08.160Z,4.95
2018-09-02T02:20:41.090Z,6.08
2018-09-02T02:21:14.058Z,5.60
2018-09-02T02:21:47.003Z,5.95
2018-09-02T02:22:19.943Z,6.78
2018-09-02T02:22:52.856Z,5.80
2018-09-02T02:23:25.793Z,6.00
2018-09-02T02:23:58.724Z,5.58
2018-09-02T02:24:31.667Z,6.40
2018-09-02T02:25:04.591Z,5.78
2018-09-02T02:25:38.038Z,8.45
2018-09-02T02:26:11.092Z,6.15
2018-09-02T02:26:44.450Z,6.00
2018-09-02T02:27:17.398Z,5.67
2018-09-02T02:27:50.509Z,5.45
2018-09-02T02:28:23.435Z,7.58
2018-09-02T02:28:56.345Z,5.62
2018-09-02T02:29:29.281Z,5.37
2018-09-02T02:30:02.199Z,5.33
2018-09-02T02:30:35.149Z,8.38
2018-09-02T02:31:08.061Z,6.10
2018-09-02T02:31:40.980Z,5.70
2018-09-02T02:32:13.932Z,6.05
2018-09-02T02:32:46.951Z,7.78
2018-09-02T02:33:19.866Z,5.75
2018-09-02T02:33:53.043Z,5.85
2018-09-02T02:34:25.983Z,6.97
2018-09-02T02:34:58.951Z,7.70
2018-09-02T02:35:31.885Z,5.70
2018-09-02T02:36:04.830Z,6.30
2018-09-02T02:36:37.853Z,6.58
2018-09-02T02:37:10.746Z,4.50
2018-09-02T02:37:43.708Z,7.12
2018-09-02T02:38:16.648Z,8.08
2018-09-02T02:38:49.583Z,5.95
2018-09-02T02:39:22.525Z,6.00
2018-09-02T02:39:55.561Z,5.00
2018-09-02T02:40:28.707Z,7.92
2018-09-02T02:41:01.649Z,6.72
2018-09-02T02:41:34.600Z,6.42
2018-09-02T02:42:07.550Z,5.30
2018-09-02T02:42:40.492Z,5.25
2018-09-02T02:43:13.411Z,5.50
2018-09-02T02:43:46.546Z,6.55
2018-09-02T02:44:19.519Z,5.50
2018-09-02T02:44:52.443Z,6.25
2018-09-02T02:45:25.390Z,5.80
2018-09-02T02:45:58.333Z,5.53
2018-09-02T02:46:31.304Z,6.15
2018-09-02T02:47:04.254Z,5.45
2018-09-02T02:47:37.560Z,6.20
2018-09-02T02:48:10.499Z,6.17
2018-09-02T02:48:43.600Z,7.53
2018-09-02T02:49:16.512Z,5.72
2018-09-02T02:49:49.433Z,5.78
2018-09-02T02:50:22.391Z,5.12
2018-09-02T02:50:55.299Z,6.33
2018-09-02T02:51:28.205Z,5.80
2018-09-02T02:52:01.135Z,5.00
2018-09-02T02:52:39.684Z,5.15
2018-09-02T02:53:12.610Z,5.55
2018-09-02T02:53:45.589Z,5.45
2018-09-02T02:54:18.495Z,4.87
2018-09-02T02:54:51.440Z,6.42
2018-09-02T02:55:24.374Z,5.50
2018-09-02T02:55:57.296Z,5.72
2018-09-02T02:56:30.230Z,7.25
2018-09-02T02:57:03.161Z,6.60
2018-09-02T02:57:36.089Z,6.35
2018-09-02T02:58:09.000Z,6.62
2018-09-02T02:58:41.897Z,6.12
2018-09-02T02:59:14.814Z,8.18
2018-09-02T02:59:47.735Z,5.65
2018-09-02T03:00:20.656Z,6.60
2018-09-02T03:00:53.582Z,6.17
2018-09-02T03:01:26.515Z,5.42
2018-09-02T03:01:59.448Z,8.33
2018-09-02T03:02:32.378Z,7.03
2018-09-02T03:03:05.305Z,6.72
2018-09-02T03:03:38.750Z,4.97
2018-09-02T03:04:11.665Z,5.65
2018-09-02T03:04:44.568Z,5.60
2018-09-02T03:05:17.517Z,5.25
2018-09-02T03:05:50.444Z,6.87
2018-09-02T03:06:23.605Z,5.65
2018-09-02T03:07:01.987Z,5.53
2018-09-02T03:07:34.916Z,7.10
2018-09-02T03:08:07.887Z,6.30
2018-09-02T03:08:40.824Z,6.97
2018-09-02T03:09:13.741Z,5.80
2018-09-02T03:09:46.702Z,7.50
2018-09-02T03:10:19.632Z,5.28
2018-09-02T03:10:52.665Z,5.53
2018-09-02T03:11:25.501Z,6.15
2018-09-02T03:11:58.431Z,6.12
2018-09-02T03:12:31.599Z,5.85
2018-09-02T03:13:04.647Z,5.78
2018-09-02T03:13:37.548Z,7.17
2018-09-02T03:14:11.119Z,5.70
2018-09-02T03:14:44.034Z,5.40
2018-09-02T03:15:17.481Z,7.53
2018-09-02T03:15:50.451Z,7.83
2018-09-02T03:16:23.372Z,7.35
2018-09-02T03:16:56.327Z,7.22
2018-09-02T03:17:29.244Z,5.10
2018-09-02T03:18:02.217Z,6.85
2018-09-02T03:18:35.168Z,7.05
2018-09-02T03:19:08.413Z,5.53
2018-09-02T03:19:41.363Z,7.50
2018-09-02T03:20:14.310Z,6.40
2018-09-02T03:20:47.353Z,6.95
2018-09-02T03:21:20.304Z,5.67
2018-09-02T03:21:53.225Z,6.90
2018-09-02T03:22:26.260Z,7.25
2018-09-02T03:22:59.204Z,6.70
2018-09-02T03:23:32.362Z,6.60
2018-09-02T03:24:05.505Z,7.47
2018-09-02T03:24:38.429Z,7.60
2018-09-02T03:25:11.544Z,5.97
2018-09-02T03:25:44.474Z,8.15
2018-09-02T03:26:17.421Z,7.17
2018-09-02T03:26:50.332Z,6.28
2018-09-02T03:27:23.266Z,8.98
2018-09-02T03:27:56.192Z,9.08
2018-09-02T03:28:29.123Z,6.10
2018-09-02T03:29:02.069Z,6.35
2018-09-02T03:29:35.010Z,9.20
2018-09-02T03:30:07.958Z,6.47
2018-09-02T03:30:40.905Z,5.95
2018-09-02T03:31:13.857Z,6.05
2018-09-02T03:31:46.802Z,5.65
2018-09-02T03:32:19.746Z,7.15
2018-09-02T03:32:52.701Z,6.90
2018-09-02T03:33:25.608Z,5.85
2018-09-02T03:33:58.543Z,5.90
2018-09-02T03:34:31.658Z,7.55
2018-09-02T03:35:04.611Z,5.80
2018-09-02T03:35:37.552Z,6.80
2018-09-02T03:36:10.762Z,7.22
2018-09-02T03:36:43.702Z,7.28
2018-09-02T03:37:16.606Z,5.90
2018-09-02T03:37:49.553Z,8.23
2018-09-02T03:38:22.467Z,8.18
2018-09-02T03:38:55.400Z,8.33
2018-09-02T03:39:28.342Z,9.93
2018-09-02T03:40:01.267Z,6.75
2018-09-02T03:40:34.222Z,5.60
2018-09-02T03:41:07.289Z,7.83
2018-09-02T03:41:40.250Z,5.87
2018-09-02T03:42:13.324Z,5.40
2018-09-02T03:42:46.261Z,6.75
2018-09-02T03:43:19.173Z,6.33
2018-09-02T03:43:52.249Z,7.70
2018-09-02T03:44:25.175Z,5.35
2018-09-02T03:44:58.131Z,6.85
2018-09-02T03:45:31.071Z,7.62
2018-09-02T03:46:04.066Z,6.17
2018-09-02T03:46:36.990Z,6.53
2018-09-02T03:47:09.943Z,9.90
2018-09-02T03:47:42.928Z,6.60
2018-09-02T03:48:15.863Z,7.30
2018-09-02T03:48:49.107Z,6.65
2018-09-02T03:49:22.030Z,7.10
2018-09-02T03:49:54.957Z,8.78
2018-09-02T03:50:27.840Z,6.65
2018-09-02T03:51:00.745Z,6.08
2018-09-02T03:51:33.673Z,7.40
2018-09-02T03:52:06.596Z,5.65
2018-09-02T03:52:39.867Z,7.05
2018-09-02T03:53:12.817Z,5.92
2018-09-02T03:53:45.939Z,6.47
2018-09-02T03:54:18.876Z,6.33
2018-09-02T03:54:51.815Z,6.45
2018-09-02T03:55:24.758Z,6.78
2018-09-02T03:55:57.903Z,9.60
2018-09-02T03:56:30.837Z,6.45
2018-09-02T03:57:03.754Z,5.28
2018-09-02T03:57:36.665Z,6.60
2018-09-02T03:58:09.602Z,5.87
2018-09-02T03:58:42.553Z,8.75
2018-09-02T03:59:15.503Z,5.80
2018-09-02T03:59:48.431Z,6.35
2018-09-02T04:00:21.355Z,7.05
2018-09-02T04:00:54.324Z,8.03
2018-09-02T04:01:27.241Z,7.78
2018-09-02T04:02:00.366Z,6.87
2018-09-02T04:02:33.268Z,7.20
2018-09-02T04:03:06.444Z,9.20
2018-09-02T04:03:39.414Z,13.30
2018-09-02T04:04:12.458Z,6.55
2018-09-02T04:04:45.384Z,8.75
2018-09-02T04:05:18.306Z,6.80
2018-09-02T04:05:51.296Z,6.37
2018-09-02T04:06:24.241Z,8.85
2018-09-02T04:06:57.168Z,5.85
2018-09-02T04:07:30.080Z,7.08
2018-09-02T04:08:02.995Z,8.18
2018-09-02T04:08:35.941Z,9.95
2018-09-02T04:09:09.838Z,6.50
2018-09-02T04:09:42.757Z,5.83
2018-09-02T04:10:15.712Z,5.50
2018-09-02T04:10:48.654Z,8.88
2018-09-02T04:11:21.667Z,6.67
2018-09-02T04:11:54.664Z,8.78
2018-09-02T04:12:27.573Z,5.80
2018-09-02T04:13:00.518Z,8.00
2018-09-02T04:13:33.439Z,6.78
2018-09-02T04:14:06.362Z,6.92
2018-09-02T04:14:39.304Z,7.15
2018-09-02T04:15:12.257Z,6.33
2018-09-02T04:15:45.178Z,7.90
2018-09-02T04:16:18.130Z,7.40
2018-09-02T04:16:51.058Z,6.58
2018-09-02T04:17:24.031Z,7.95
2018-09-02T04:17:56.974Z,6.67
2018-09-02T04:18:29.954Z,10.78
2018-09-02T04:19:02.948Z,5.60
2018-09-02T04:19:35.896Z,7.80
2018-09-02T04:20:09.093Z,7.10
2018-09-02T04:20:42.134Z,6.30
2018-09-02T04:21:15.065Z,7.95
2018-09-02T04:21:48.002Z,8.63
2018-09-02T04:22:20.918Z,8.28
2018-09-02T04:22:53.911Z,8.63
2018-09-02T04:23:26.967Z,8.43
2018-09-02T04:23:59.909Z,7.40
2018-09-02T04:24:32.867Z,7.87
2018-09-02T04:25:05.792Z,5.78
2018-09-02T04:25:38.723Z,6.85
2018-09-02T04:26:11.680Z,7.70
2018-09-02T04:26:44.626Z,8.13
2018-09-02T04:27:17.820Z,8.20
2018-09-02T04:27:50.755Z,6.45
2018-09-02T04:28:23.678Z,6.58
2018-09-02T04:28:56.590Z,9.40
2018-09-02T04:29:29.542Z,10.30
2018-09-02T04:30:02.501Z,8.45
2018-09-02T04:30:35.519Z,7.58
2018-09-02T04:31:08.473Z,7.75
2018-09-02T04:31:41.394Z,8.93
2018-09-02T04:32:14.470Z,6.67
2018-09-02T04:32:47.610Z,6.50
2018-09-02T04:33:20.551Z,6.55
2018-09-02T04:33:53.546Z,9.08
2018-09-02T04:34:26.397Z,7.05
2018-09-02T04:34:59.298Z,8.13
2018-09-02T04:35:32.220Z,7.75
2018-09-02T04:36:05.134Z,6.83
2018-09-02T04:36:38.088Z,9.18
2018-09-02T04:37:11.216Z,6.53
2018-09-02T04:37:44.140Z,10.32
2018-09-02T04:38:17.060Z,7.70
2018-09-02T04:38:49.999Z,7.58
2018-09-02T04:39:22.932Z,11.15
2018-09-02T04:39:55.905Z,9.48
2018-09-02T04:40:28.802Z,8.45
2018-09-02T04:41:01.737Z,8.25
2018-09-02T04:41:34.737Z,9.65
2018-09-02T04:42:07.683Z,9.70
2018-09-02T04:42:40.617Z,8.55
2018-09-02T04:43:13.684Z,7.10
2018-09-02T04:43:46.594Z,7.37
2018-09-02T04:44:19.597Z,9.08
2018-09-02T04:44:52.678Z,7.20
2018-09-02T04:45:25.653Z,8.58
2018-09-02T04:45:58.520Z,7.78
2018-09-02T04:46:31.445Z,9.70
2018-09-02T04:47:04.478Z,7.03
2018-09-02T04:47:37.402Z,7.28
2018-09-02T04:48:10.311Z,7.60
2018-09-02T04:48:43.245Z,9.00
2018-09-02T04:49:16.222Z,7.85
2018-09-02T04:49:49.134Z,10.30
2018-09-02T04:50:22.054Z,9.25
2018-09-02T04:50:54.978Z,7.30
2018-09-02T04:51:27.928Z,15.38
2018-09-02T04:52:00.881Z,9.53
2018-09-02T04:52:33.786Z,10.68
2018-09-02T04:53:06.694Z,9.95
2018-09-02T04:53:39.630Z,10.32
2018-09-02T04:54:12.743Z,9.45
2018-09-02T04:54:45.605Z,9.20
2018-09-02T04:55:18.551Z,7.92
2018-09-02T04:55:51.451Z,8.50
2018-09-02T04:56:24.402Z,9.98
2018-09-02T04:56:57.321Z,8.88
2018-09-02T04:57:30.272Z,10.43
2018-09-02T04:58:03.210Z,11.30
2018-09-02T04:58:36.151Z,10.65
2018-09-02T04:59:09.082Z,8.50
2018-09-02T04:59:42.140Z,12.13
2018-09-02T05:00:15.122Z,9.60
2018-09-02T05:00:47.999Z,9.40
2018-09-02T05:01:21.062Z,10.80
2018-09-02T05:01:54.010Z,11.45
2018-09-02T05:02:26.949Z,8.08
2018-09-02T05:02:59.910Z,9.28
2018-09-02T05:03:32.839Z,9.53
2018-09-02T05:04:05.809Z,8.05
2018-09-02T05:04:38.782Z,9.25
2018-09-02T05:05:11.698Z,11.22
2018-09-02T05:05:44.628Z,12.00
2018-09-02T05:06:17.552Z,10.63
2018-09-02T05:06:50.486Z,9.65
2018-09-02T05:07:23.440Z,10.82
2018-09-02T05:07:56.389Z,8.80
2018-09-02T05:08:29.494Z,10.32
2018-09-02T05:09:02.499Z,10.08
2018-09-02T05:09:35.483Z,10.25
2018-09-02T05:10:08.412Z,10.80
2018-09-02T05:10:41.333Z,12.43
2018-09-02T05:11:14.282Z,8.48
2018-09-02T05:11:47.219Z,8.95
2018-09-02T05:12:20.236Z,10.93
2018-09-02T05:12:53.208Z,11.08
2018-09-02T05:13:26.133Z,9.60
2018-09-02T05:13:59.117Z,12.73
2018-09-02T05:14:32.129Z,9.70
2018-09-02T05:15:05.062Z,9.30
2018-09-02T05:15:37.979Z,9.65
2018-09-02T05:16:10.924Z,8.80
2018-09-02T05:16:43.846Z,10.53
2018-09-02T05:17:17.101Z,11.53
2018-09-02T05:17:50.146Z,9.08
2018-09-02T05:18:23.144Z,10.08
2018-09-02T05:18:56.092Z,9.40
2018-09-02T05:19:29.021Z,11.28
2018-09-02T05:20:01.931Z,9.00
2018-09-02T05:20:34.924Z,9.95
2018-09-02T05:21:07.865Z,10.18
2018-09-02T05:21:40.826Z,8.48
2018-09-02T05:22:13.749Z,9.30
2018-09-02T05:22:46.679Z,8.88
2018-09-02T05:23:19.626Z,9.55
2018-09-02T05:23:52.535Z,9.25
2018-09-02T05:24:25.540Z,14.33
2018-09-02T05:24:58.478Z,13.30
2018-09-02T05:25:31.386Z,11.97
2018-09-02T05:26:04.335Z,10.38
2018-09-02T05:26:37.301Z,10.75
2018-09-02T05:27:10.246Z,11.00
2018-09-02T05:27:43.349Z,12.75
2018-09-02T05:28:16.524Z,9.45
2018-09-02T05:28:49.445Z,11.90
2018-09-02T05:29:22.436Z,13.53
2018-09-02T05:29:55.354Z,11.03
2018-09-02T05:30:28.309Z,12.05
2018-09-02T05:31:01.236Z,10.70
2018-09-02T05:31:34.225Z,12.50
2018-09-02T05:32:07.383Z,12.33
2018-09-02T05:32:40.315Z,10.48
2018-09-02T05:33:13.433Z,15.43
2018-09-02T05:33:46.370Z,11.65
2018-09-02T05:34:19.337Z,9.28
2018-09-02T05:34:52.268Z,10.80
2018-09-02T05:35:25.223Z,10.88
2018-09-02T05:35:58.196Z,13.88
2018-09-02T05:36:31.151Z,9.70
2018-09-02T05:37:04.427Z,12.33
2018-09-02T05:37:37.276Z,10.10
2018-09-02T05:38:10.193Z,11.10
2018-09-02T05:38:43.152Z,10.98
2018-09-02T05:39:16.092Z,10.30
2018-09-02T05:39:49.116Z,9.25
2018-09-02T05:40:22.294Z,10.98
2018-09-02T05:40:55.217Z,10.90
2018-09-02T05:41:28.134Z,12.40
2018-09-02T05:42:01.097Z,10.43
2018-09-02T05:42:34.038Z,10.25
2018-09-02T05:43:06.983Z,13.22
2018-09-02T05:43:40.082Z,14.40
2018-09-02T05:44:13.156Z,11.00
2018-09-02T05:44:46.061Z,10.03
2018-09-02T05:45:19.208Z,14.15
2018-09-02T05:45:52.128Z,10.38
2018-09-02T05:46:25.081Z,12.80
2018-09-02T05:46:58.033Z,11.80
2018-09-02T05:47:30.956Z,10.45
2018-09-02T05:48:04.173Z,11.10
2018-09-02T05:48:37.073Z,11.95
2018-09-02T05:49:10.226Z,11.45
2018-09-02T05:49:43.121Z,12.23
2018-09-02T05:50:16.051Z,11.18
2018-09-02T05:50:49.168Z,11.48
2018-09-02T05:51:22.209Z,14.07
2018-09-02T05:51:55.188Z,11.10
2018-09-02T05:52:28.131Z,10.28
2018-09-02T05:53:01.066Z,12.95
2018-09-02T05:53:34.039Z,11.33
2018-09-02T05:54:07.032Z,11.28
2018-09-02T05:54:39.962Z,10.48
2018-09-02T05:55:12.919Z,13.30
2018-09-02T05:55:45.891Z,13.78
2018-09-02T05:56:18.834Z,10.25
2018-09-02T05:56:51.775Z,12.68
2018-09-02T05:57:24.771Z,10.10
2018-09-02T05:57:57.685Z,9.50
2018-09-02T05:58:30.618Z,9.15
2018-09-02T05:59:03.581Z,10.00
2018-09-02T05:59:36.641Z,11.33
2018-09-02T06:00:09.586Z,13.48
2018-09-02T06:00:42.683Z,11.12
2018-09-02T06:01:15.902Z,10.88
2018-09-02T06:01:48.882Z,12.18
2018-09-02T06:02:21.912Z,11.38
2018-09-02T06:02:54.918Z,11.05
2018-09-02T06:03:27.973Z,11.05
2018-09-02T06:04:00.939Z,12.80
2018-09-02T06:04:33.910Z,13.95
2018-09-02T06:05:06.851Z,11.88
2018-09-02T06:05:39.769Z,11.65
2018-09-02T06:06:12.699Z,15.80
2018-09-02T06:06:45.657Z,13.50
2018-09-02T06:07:18.585Z,11.45
2018-09-02T06:07:51.536Z,15.63
2018-09-02T06:08:24.512Z,13.85
2018-09-02T06:08:57.466Z,15.05
2018-09-02T06:09:30.416Z,16.65
2018-09-02T06:10:03.901Z,12.45
2018-09-02T06:10:36.837Z,18.10
2018-09-02T06:11:09.787Z,14.00
2018-09-02T06:11:42.730Z,12.30
2018-09-02T06:12:15.655Z,13.60
2018-09-02T06:12:48.914Z,12.37
2018-09-02T06:13:21.859Z,14.38
2018-09-02T06:13:54.971Z,14.13
2018-09-02T06:14:27.916Z,14.18
2018-09-02T06:15:01.005Z,14.10
2018-09-02T06:15:33.978Z,13.72
2018-09-02T06:16:06.931Z,12.10
2018-09-02T06:16:39.832Z,11.20
2018-09-02T06:17:12.809Z,16.23
2018-09-02T06:17:45.795Z,11.45
2018-09-02T06:18:18.766Z,12.25
2018-09-02T06:18:51.731Z,11.65
2018-09-02T06:19:24.697Z,13.45
2018-09-02T06:19:57.642Z,11.35
2018-09-02T06:20:30.635Z,12.33
2018-09-02T06:21:03.610Z,10.58
2018-09-02T06:21:36.561Z,12.80
2018-09-02T06:22:09.510Z,14.13
2018-09-02T06:22:42.425Z,11.53
2018-09-02T06:23:15.398Z,16.30
2018-09-02T06:23:48.344Z,12.73
2018-09-02T06:24:21.327Z,11.20
2018-09-02T06:24:54.282Z,11.97
2018-09-02T06:25:27.210Z,10.55
2018-09-02T06:26:00.168Z,12.47
2018-09-02T06:26:33.192Z,15.72
2018-09-02T06:27:06.107Z,15.53
2018-09-02T06:27:39.263Z,14.33
2018-09-02T06:28:12.180Z,13.58
2018-09-02T06:28:45.154Z,12.90
2018-09-02T06:29:18.109Z,13.95
2018-09-02T06:29:51.064Z,12.82
2018-09-02T06:30:24.031Z,15.10
2018-09-02T06:30:56.976Z,14.40
2018-09-02T06:31:29.920Z,12.85
2018-09-02T06:32:02.955Z,11.05
2018-09-02T06:32:35.882Z,13.93
2018-09-02T06:33:08.997Z,13.68
2018-09-02T06:33:41.945Z,12.00
2018-09-02T06:34:14.862Z,14.03
2018-09-02T06:34:47.807Z,14.75
2018-09-02T06:35:20.867Z,14.23
2018-09-02T06:35:53.807Z,11.15
2018-09-02T06:36:26.835Z,13.18
2018-09-02T06:36:59.792Z,13.85
2018-09-02T06:37:32.776Z,14.28
2018-09-02T06:38:05.747Z,14.90
2018-09-02T06:38:38.692Z,11.18
2018-09-02T06:39:12.562Z,12.43
2018-09-02T06:39:45.493Z,14.63
2018-09-02T06:40:18.441Z,15.32
2018-09-02T06:40:51.359Z,13.68
2018-09-02T06:41:24.381Z,12.50
2018-09-02T06:41:57.302Z,15.65
2018-09-02T06:42:30.277Z,15.25
2018-09-02T06:43:03.309Z,13.43
2018-09-02T06:43:36.257Z,12.37
2018-09-02T06:44:09.583Z,16.30
2018-09-02T06:44:42.534Z,16.23
2018-09-02T06:45:15.484Z,15.50
2018-09-02T06:45:48.541Z,13.55
2018-09-02T06:46:21.452Z,12.70
2018-09-02T06:46:54.371Z,13.48
2018-09-02T06:47:27.362Z,15.98
2018-09-02T06:48:00.379Z,12.90
2018-09-02T06:48:33.373Z,13.80
2018-09-02T06:49:06.365Z,13.30
2018-09-02T06:49:39.309Z,11.33
2018-09-02T06:50:12.242Z,15.00
2018-09-02T06:50:45.345Z,13.05
2018-09-02T06:51:18.530Z,17.45
2018-09-02T06:51:51.441Z,14.23
2018-09-02T06:52:24.407Z,13.35
2018-09-02T06:52:57.358Z,12.93
2018-09-02T06:53:30.364Z,14.00
2018-09-02T06:54:03.332Z,14.03
2018-09-02T06:54:36.285Z,14.13
2018-09-02T06:55:09.276Z,14.30
2018-09-02T06:55:42.485Z,13.00
2018-09-02T06:56:15.431Z,12.37
2018-09-02T06:56:48.394Z,13.68
2018-09-02T06:57:21.304Z,15.53
2018-09-02T06:57:54.312Z,15.00
2018-09-02T06:58:27.251Z,13.58
2018-09-02T06:59:00.265Z,13.95
2018-09-02T06:59:33.249Z,14.40
2018-09-02T07:00:06.240Z,13.70
2018-09-02T07:00:39.195Z,12.93
2018-09-02T07:01:12.159Z,16.12
2018-09-02T07:01:45.110Z,12.80
2018-09-02T07:02:18.035Z,16.25
2018-09-02T07:02:51.084Z,12.30
2018-09-02T07:03:24.033Z,11.55
2018-09-02T07:03:57.001Z,12.28
2018-09-02T07:04:29.919Z,12.20
2018-09-02T07:05:02.875Z,17.10
2018-09-02T07:05:39.590Z,12.63
2018-09-02T07:06:12.537Z,13.65
2018-09-02T07:06:45.547Z,16.07
2018-09-02T07:07:18.545Z,11.15
2018-09-02T07:07:51.446Z,13.20
2018-09-02T07:08:24.402Z,13.88
2018-09-02T07:08:57.345Z,13.22
2018-09-02T07:09:30.946Z,10.80
2018-09-02T07:10:03.889Z,11.93
2018-09-02T07:10:36.982Z,12.95
2018-09-02T07:11:09.897Z,11.38
2018-09-02T07:11:42.809Z,13.13
2018-09-02T07:12:15.816Z,14.87
2018-09-02T07:12:48.717Z,11.97
2018-09-02T07:13:21.750Z,11.33
2018-09-02T07:13:54.691Z,12.50
2018-09-02T07:14:27.701Z,13.20
2018-09-02T07:15:00.593Z,14.58
2018-09-02T07:15:33.788Z,12.33